Startpagina
METAR-TAF:

METAR-TAF

Vliegvelden :

Brussels Airport. Zaventem

Brussel, België

breedte: 50-54N, lengte: 004-32E, hoogte: 55 m

Actueel weer

Dit bericht is 37 minuten geleden gemaakt, om 04:50 UTC
Wind 1 kt uit variabele richting
Temperatuur -3°C
Vochtigheid 93%
Druk 1027 hPa
Zicht 10 km of meer
geen wolken onder 1500 m en geen cumulonimbus

METAR: EBBR 070450Z VRB01KT CAVOK M03/M04 Q1027 NOSIG

Tijdstip: 06:27 (05:27 UTC)

Verwachting

Dit bericht is 6 uur en het 7 minuten geleden gemaakt, om 23:20 UTC
Verwachting geldig van 07 om 00 UTC tot 08 om 06 UTC
Wind 4 kt uit het noordoosten
Zicht 10 km of meer
geen wolken onder 1500 m en geen cumulonimbus
Kans 30% :
Tijdelijke
van 08 om 04 UTC tot 08 om 06 UTC
Zicht: 3000 m
nevel, Ondiepe mist

TAF: EBBR 062320Z 0700/0806 04004KT CAVOK PROB30 TEMPO 0804/0806 3000 BR MIFG

Waarnemingen en weersverwachtingen van meer dan 4000 vliegvelden (METAR en TAF).

De beschikbare stations zijn de gele en rode punten op de kaart.

Ga met uw muis naar het station om de naam te zien.

Klik dan om waarnemingen en weersverwachtingen te zien.

kaart wijzigen: klik op de groene knoppen met een zwart kruis om in te zoomen, op de groene knop met een streepje om uit te zoomen of op de groene pijlen voor aangrenzende kaarten.


METAR-TAF: